首页
METAR-TAF:

METAR-TAF

机场 :

St. Catharines, 安大略省, 加拿大

纬度: 43-12N, 经度: 079-10W, 海拔: 98米

当前天气观测

该预报发布于1小时和5分钟前的14:00 UTC
风速7节,风向西转西南
温度 -4°C
湿度 80%
气压 1033 hPa
能見度: 16.1公里
阴天层高于3400英尺
小雪

METAR: CYSN 211400Z CCA 25007KT 10SM -SN OVC034 M04/M07 A3049 RMK SC8 SLP332

时间: 10:05 (15:05 UTC)

预报

该预报发布于1小时和27分钟前的13:38 UTC
预报有效从21日的 14点(UTC)到 22日的 02点(UTC)
风速10节,风向西转西南
能見度: 10公里
阴天层高于3000英尺
小雪
从 21日的 1800点(UTC)
风速12节,风向西转西南,有时为22节阵风
能見度: 10公里
散云层高于3000英尺
多云层高于12000英尺

TAF: CYSN 211338Z 2114/2202 25010KT P6SM -SN OVC030 FM211800 24012G22KT P6SM SCT030 BKN120 RMK NXT FCST BY 212000Z

超过4000个机场的气象观测和天气预报(METAR&TAF报告)。

可查询的气象台以黄色和红色小点在地图上表示。

将鼠标移到小点上方,可查看气象台名称。

然后点击查看天气观测和预报。

如需切换地图:点击带黑十字的绿色按钮放大地图;点击带横线的绿色按钮缩小地图;或者点击绿色箭头查看邻近地区的地图。


METAR-TAF: